WSAP/QPG METAR and TAF weather

Enter ICAO airport designator
Station Type Date Time Source
WSAP METAR 2020/09/20 15:00 UTC NOAA

WSAP 201500Z 03002KT 9999 FEW018 BKN300 29/25 Q1011


Station Type Date Time Source
WSAP Decoded METAR 2020/09/20 15:00 UTC NOAA

Singapore / Paya Lebar, Singapore (WSAP) 01-22N 103-55E 32M
Sep 20, 2020 - 11:00 AM EDT / 2020.09.20 1500 UTC
Wind: from the NNE (030 degrees) at 2 MPH (2 KT):0
Visibility: greater than 7 mile(s):0
Sky conditions: mostly cloudy
Temperature: 84 F (29 C)
Dew Point: 77 F (25 C)
Relative Humidity: 79%
Pressure (altimeter): 29.85 in. Hg (1011 hPa)
ob: WSAP 201500Z 03002KT 9999 FEW018 BKN300 29/25 Q1011
cycle: 15

Station Type Date Time Source
WSAP TAF 2020/09/20 12:09 UTC NOAA

TAF WSAP 201100Z 2012/2118 06008KT 9999 FEW015 SCT020

Example: see airport list